sensor_id;sensor_type;location;lat;lon;timestamp;P1;durP1;ratioP1;P2;durP2;ratioP2
15848;SDS011;8024;48.708;9.394;2023-03-12T00:01:20;7.53;;;6.30;;
15848;SDS011;8024;48.708;9.394;2023-03-12T00:03:49;11.83;;;7.87;;
15848;SDS011;8024;48.708;9.394;2023-03-12T00:06:18;9.57;;;8.37;;
15848;SDS011;8024;48.708;9.394;2023-03-12T00:08:48;13.60;;;8.40;;
15848;SDS011;8024;48.708;9.394;2023-03-12T00:11:16;7.83;;;6.07;;
15848;SDS011;8024;48.708;9.394;2023-03-12T00:13:47;7.80;;;5.83;;
15848;SDS011;8024;48.708;9.394;2023-03-12T00:16:15;7.63;;;5.10;;
15848;SDS011;8024;48.708;9.394;2023-03-12T00:18:43;5.67;;;5.13;;
15848;SDS011;8024;48.708;9.394;2023-03-12T00:21:12;5.27;;;4.83;;
15848;SDS011;8024;48.708;9.394;2023-03-12T00:23:39;6.20;;;5.00;;
15848;SDS011;8024;48.708;9.394;2023-03-12T00:26:08;8.07;;;4.80;;
15848;SDS011;8024;48.708;9.394;2023-03-12T00:28:37;5.23;;;4.63;;
15848;SDS011;8024;48.708;9.394;2023-03-12T00:31:12;6.93;;;5.63;;
15848;SDS011;8024;48.708;9.394;2023-03-12T00:33:40;11.20;;;7.53;;
15848;SDS011;8024;48.708;9.394;2023-03-12T00:36:07;9.90;;;8.30;;
15848;SDS011;8024;48.708;9.394;2023-03-12T00:38:37;7.63;;;5.90;;
15848;SDS011;8024;48.708;9.394;2023-03-12T00:41:04;6.27;;;4.90;;
15848;SDS011;8024;48.708;9.394;2023-03-12T00:43:33;7.63;;;4.80;;
15848;SDS011;8024;48.708;9.394;2023-03-12T00:46:00;4.77;;;4.20;;
15848;SDS011;8024;48.708;9.394;2023-03-12T00:48:27;5.47;;;4.60;;
15848;SDS011;8024;48.708;9.394;2023-03-12T00:50:54;5.80;;;4.17;;
15848;SDS011;8024;48.708;9.394;2023-03-12T00:53:21;4.70;;;4.30;;
15848;SDS011;8024;48.708;9.394;2023-03-12T00:55:49;4.77;;;4.27;;
15848;SDS011;8024;48.708;9.394;2023-03-12T00:58:16;7.60;;;5.40;;
15848;SDS011;8024;48.708;9.394;2023-03-12T01:00:44;6.30;;;5.03;;
15848;SDS011;8024;48.708;9.394;2023-03-12T01:03:11;6.80;;;5.73;;
15848;SDS011;8024;48.708;9.394;2023-03-12T01:05:41;7.30;;;4.83;;
15848;SDS011;8024;48.708;9.394;2023-03-12T01:08:09;7.77;;;5.90;;
15848;SDS011;8024;48.708;9.394;2023-03-12T01:10:39;5.47;;;4.97;;
15848;SDS011;8024;48.708;9.394;2023-03-12T01:13:07;8.47;;;4.70;;
15848;SDS011;8024;48.708;9.394;2023-03-12T01:15:34;5.77;;;4.47;;
15848;SDS011;8024;48.708;9.394;2023-03-12T01:18:03;5.27;;;4.27;;
15848;SDS011;8024;48.708;9.394;2023-03-12T01:20:31;5.40;;;4.47;;
15848;SDS011;8024;48.708;9.394;2023-03-12T01:22:58;7.07;;;4.57;;
15848;SDS011;8024;48.708;9.394;2023-03-12T01:25:25;5.10;;;4.43;;
15848;SDS011;8024;48.708;9.394;2023-03-12T01:27:52;5.17;;;4.30;;
15848;SDS011;8024;48.708;9.394;2023-03-12T01:30:19;6.83;;;5.03;;
15848;SDS011;8024;48.708;9.394;2023-03-12T01:32:47;6.20;;;4.37;;
15848;SDS011;8024;48.708;9.394;2023-03-12T01:35:16;6.97;;;5.07;;
15848;SDS011;8024;48.708;9.394;2023-03-12T01:37:43;4.90;;;4.33;;
15848;SDS011;8024;48.708;9.394;2023-03-12T01:40:11;5.00;;;4.50;;
15848;SDS011;8024;48.708;9.394;2023-03-12T01:42:40;5.00;;;4.50;;
15848;SDS011;8024;48.708;9.394;2023-03-12T01:48:08;4.50;;;4.10;;
15848;SDS011;8024;48.708;9.394;2023-03-12T01:50:37;4.67;;;4.23;;
15848;SDS011;8024;48.708;9.394;2023-03-12T01:53:04;4.27;;;3.67;;
15848;SDS011;8024;48.708;9.394;2023-03-12T01:55:31;4.27;;;3.87;;
15848;SDS011;8024;48.708;9.394;2023-03-12T01:57:59;6.10;;;4.07;;
15848;SDS011;8024;48.708;9.394;2023-03-12T02:00:28;5.13;;;4.43;;
15848;SDS011;8024;48.708;9.394;2023-03-12T02:02:56;5.03;;;3.87;;
15848;SDS011;8024;48.708;9.394;2023-03-12T02:05:26;5.47;;;3.97;;
15848;SDS011;8024;48.708;9.394;2023-03-12T02:07:58;8.27;;;5.00;;
15848;SDS011;8024;48.708;9.394;2023-03-12T02:10:25;4.03;;;3.73;;
15848;SDS011;8024;48.708;9.394;2023-03-12T02:12:53;5.70;;;3.93;;
15848;SDS011;8024;48.708;9.394;2023-03-12T02:15:20;5.30;;;4.63;;
15848;SDS011;8024;48.708;9.394;2023-03-12T02:17:48;5.33;;;4.50;;
15848;SDS011;8024;48.708;9.394;2023-03-12T02:20:16;6.47;;;4.13;;
15848;SDS011;8024;48.708;9.394;2023-03-12T02:22:48;5.17;;;4.40;;
15848;SDS011;8024;48.708;9.394;2023-03-12T02:25:27;8.37;;;4.40;;
15848;SDS011;8024;48.708;9.394;2023-03-12T02:27:59;7.17;;;4.60;;
15848;SDS011;8024;48.708;9.394;2023-03-12T02:30:30;11.50;;;6.97;;
15848;SDS011;8024;48.708;9.394;2023-03-12T02:32:58;10.87;;;7.97;;
15848;SDS011;8024;48.708;9.394;2023-03-12T02:35:30;9.43;;;6.13;;
15848;SDS011;8024;48.708;9.394;2023-03-12T02:37:57;8.67;;;6.10;;
15848;SDS011;8024;48.708;9.394;2023-03-12T02:40:25;7.83;;;5.20;;
15848;SDS011;8024;48.708;9.394;2023-03-12T02:42:57;11.07;;;6.53;;
15848;SDS011;8024;48.708;9.394;2023-03-12T02:45:24;12.57;;;8.80;;
15848;SDS011;8024;48.708;9.394;2023-03-12T02:47:53;11.00;;;7.63;;
15848;SDS011;8024;48.708;9.394;2023-03-12T02:50:21;5.80;;;5.00;;
15848;SDS011;8024;48.708;9.394;2023-03-12T02:52:48;5.10;;;4.53;;
15848;SDS011;8024;48.708;9.394;2023-03-12T02:55:15;6.93;;;5.03;;
15848;SDS011;8024;48.708;9.394;2023-03-12T02:57:44;5.23;;;4.60;;
15848;SDS011;8024;48.708;9.394;2023-03-12T03:00:11;5.60;;;5.10;;
15848;SDS011;8024;48.708;9.394;2023-03-12T03:02:40;6.13;;;4.67;;
15848;SDS011;8024;48.708;9.394;2023-03-12T03:05:08;4.87;;;4.23;;
15848;SDS011;8024;48.708;9.394;2023-03-12T03:07:36;8.07;;;5.10;;
15848;SDS011;8024;48.708;9.394;2023-03-12T03:10:04;10.37;;;7.33;;
15848;SDS011;8024;48.708;9.394;2023-03-12T03:12:32;5.83;;;5.23;;
15848;SDS011;8024;48.708;9.394;2023-03-12T03:15:02;12.23;;;7.47;;
15848;SDS011;8024;48.708;9.394;2023-03-12T03:17:30;8.97;;;7.03;;
15848;SDS011;8024;48.708;9.394;2023-03-12T03:19:57;12.00;;;7.63;;
15848;SDS011;8024;48.708;9.394;2023-03-12T03:22:24;9.00;;;5.17;;
15848;SDS011;8024;48.708;9.394;2023-03-12T03:24:51;5.63;;;4.57;;
15848;SDS011;8024;48.708;9.394;2023-03-12T03:27:19;6.67;;;5.20;;
15848;SDS011;8024;48.708;9.394;2023-03-12T03:29:46;7.40;;;6.57;;
15848;SDS011;8024;48.708;9.394;2023-03-12T03:32:15;8.17;;;5.83;;
15848;SDS011;8024;48.708;9.394;2023-03-12T03:34:42;6.57;;;5.87;;
15848;SDS011;8024;48.708;9.394;2023-03-12T03:37:09;6.00;;;5.17;;
15848;SDS011;8024;48.708;9.394;2023-03-12T03:39:36;6.07;;;5.33;;
15848;SDS011;8024;48.708;9.394;2023-03-12T03:42:03;9.67;;;6.13;;
15848;SDS011;8024;48.708;9.394;2023-03-12T03:44:31;5.97;;;5.40;;
15848;SDS011;8024;48.708;9.394;2023-03-12T03:46:58;9.53;;;4.97;;
15848;SDS011;8024;48.708;9.394;2023-03-12T03:49:27;8.93;;;6.73;;
15848;SDS011;8024;48.708;9.394;2023-03-12T03:51:54;7.83;;;5.80;;
15848;SDS011;8024;48.708;9.394;2023-03-12T03:54:21;6.53;;;5.37;;
15848;SDS011;8024;48.708;9.394;2023-03-12T03:56:48;4.97;;;4.33;;
15848;SDS011;8024;48.708;9.394;2023-03-12T03:59:15;7.93;;;5.87;;
15848;SDS011;8024;48.708;9.394;2023-03-12T04:01:42;5.90;;;4.83;;
15848;SDS011;8024;48.708;9.394;2023-03-12T04:04:09;6.00;;;4.60;;
15848;SDS011;8024;48.708;9.394;2023-03-12T04:06:38;7.03;;;5.90;;
15848;SDS011;8024;48.708;9.394;2023-03-12T04:09:05;5.87;;;4.73;;
15848;SDS011;8024;48.708;9.394;2023-03-12T04:11:32;6.73;;;5.20;;
15848;SDS011;8024;48.708;9.394;2023-03-12T04:13:59;8.90;;;4.97;;
15848;SDS011;8024;48.708;9.394;2023-03-12T04:16:26;6.07;;;5.47;;
15848;SDS011;8024;48.708;9.394;2023-03-12T04:18:54;6.17;;;5.57;;
15848;SDS011;8024;48.708;9.394;2023-03-12T04:21:21;7.43;;;5.60;;
15848;SDS011;8024;48.708;9.394;2023-03-12T04:23:49;7.77;;;6.80;;
15848;SDS011;8024;48.708;9.394;2023-03-12T04:26:17;9.17;;;6.63;;
15848;SDS011;8024;48.708;9.394;2023-03-12T04:28:44;9.87;;;6.90;;
15848;SDS011;8024;48.708;9.394;2023-03-12T04:31:13;7.67;;;6.07;;
15848;SDS011;8024;48.708;9.394;2023-03-12T04:33:40;6.03;;;5.37;;
15848;SDS011;8024;48.708;9.394;2023-03-12T04:36:07;6.80;;;5.13;;
15848;SDS011;8024;48.708;9.394;2023-03-12T04:38:35;5.63;;;4.43;;
15848;SDS011;8024;48.708;9.394;2023-03-12T04:41:04;4.83;;;4.33;;
15848;SDS011;8024;48.708;9.394;2023-03-12T04:43:33;4.33;;;3.93;;
15848;SDS011;8024;48.708;9.394;2023-03-12T04:46:00;5.47;;;4.37;;
15848;SDS011;8024;48.708;9.394;2023-03-12T04:48:27;4.63;;;4.17;;
15848;SDS011;8024;48.708;9.394;2023-03-12T04:50:55;5.17;;;3.73;;
15848;SDS011;8024;48.708;9.394;2023-03-12T04:53:23;7.50;;;5.17;;
15848;SDS011;8024;48.708;9.394;2023-03-12T04:55:50;4.30;;;3.90;;
15848;SDS011;8024;48.708;9.394;2023-03-12T04:58:19;4.97;;;4.47;;
15848;SDS011;8024;48.708;9.394;2023-03-12T05:00:47;4.20;;;3.90;;
15848;SDS011;8024;48.708;9.394;2023-03-12T05:03:15;5.43;;;4.50;;
15848;SDS011;8024;48.708;9.394;2023-03-12T05:05:43;5.03;;;4.57;;
15848;SDS011;8024;48.708;9.394;2023-03-12T05:08:10;7.37;;;4.37;;
15848;SDS011;8024;48.708;9.394;2023-03-12T05:10:37;5.43;;;4.03;;
15848;SDS011;8024;48.708;9.394;2023-03-12T05:13:11;4.53;;;4.13;;
15848;SDS011;8024;48.708;9.394;2023-03-12T05:15:40;6.80;;;4.30;;
15848;SDS011;8024;48.708;9.394;2023-03-12T05:18:07;8.13;;;4.90;;
15848;SDS011;8024;48.708;9.394;2023-03-12T05:20:34;5.93;;;4.57;;
15848;SDS011;8024;48.708;9.394;2023-03-12T05:23:01;5.57;;;3.93;;
15848;SDS011;8024;48.708;9.394;2023-03-12T05:25:29;4.83;;;4.13;;
15848;SDS011;8024;48.708;9.394;2023-03-12T05:27:56;5.07;;;4.27;;
15848;SDS011;8024;48.708;9.394;2023-03-12T05:30:23;5.10;;;4.60;;
15848;SDS011;8024;48.708;9.394;2023-03-12T05:32:52;5.37;;;4.47;;
15848;SDS011;8024;48.708;9.394;2023-03-12T05:35:19;5.63;;;4.23;;
15848;SDS011;8024;48.708;9.394;2023-03-12T05:37:46;6.00;;;3.87;;
15848;SDS011;8024;48.708;9.394;2023-03-12T05:40:13;4.37;;;3.97;;
15848;SDS011;8024;48.708;9.394;2023-03-12T05:42:40;4.27;;;3.87;;
15848;SDS011;8024;48.708;9.394;2023-03-12T05:45:08;6.47;;;3.83;;
15848;SDS011;8024;48.708;9.394;2023-03-12T05:47:35;6.30;;;4.07;;
15848;SDS011;8024;48.708;9.394;2023-03-12T05:50:04;4.00;;;3.70;;
15848;SDS011;8024;48.708;9.394;2023-03-12T05:52:33;5.10;;;4.37;;
15848;SDS011;8024;48.708;9.394;2023-03-12T05:55:00;5.87;;;4.00;;
15848;SDS011;8024;48.708;9.394;2023-03-12T05:57:28;4.33;;;3.93;;
15848;SDS011;8024;48.708;9.394;2023-03-12T05:59:55;3.90;;;3.60;;
15848;SDS011;8024;48.708;9.394;2023-03-12T06:02:22;4.73;;;3.90;;
15848;SDS011;8024;48.708;9.394;2023-03-12T06:04:49;5.40;;;4.90;;
15848;SDS011;8024;48.708;9.394;2023-03-12T06:07:18;4.37;;;3.97;;
15848;SDS011;8024;48.708;9.394;2023-03-12T06:09:45;5.10;;;3.97;;
15848;SDS011;8024;48.708;9.394;2023-03-12T06:12:12;4.57;;;4.17;;
15848;SDS011;8024;48.708;9.394;2023-03-12T06:14:39;4.27;;;3.87;;
15848;SDS011;8024;48.708;9.394;2023-03-12T06:17:06;4.03;;;3.70;;
15848;SDS011;8024;48.708;9.394;2023-03-12T06:19:33;7.50;;;4.23;;
15848;SDS011;8024;48.708;9.394;2023-03-12T06:22:00;4.80;;;4.40;;
15848;SDS011;8024;48.708;9.394;2023-03-12T06:24:29;5.27;;;4.23;;
15848;SDS011;8024;48.708;9.394;2023-03-12T06:26:56;5.33;;;4.83;;
15848;SDS011;8024;48.708;9.394;2023-03-12T06:29:23;5.90;;;4.27;;
15848;SDS011;8024;48.708;9.394;2023-03-12T06:31:51;5.97;;;4.43;;
15848;SDS011;8024;48.708;9.394;2023-03-12T06:34:18;6.80;;;4.87;;
15848;SDS011;8024;48.708;9.394;2023-03-12T06:36:45;4.53;;;4.00;;
15848;SDS011;8024;48.708;9.394;2023-03-12T06:39:12;5.47;;;4.97;;
15848;SDS011;8024;48.708;9.394;2023-03-12T06:41:40;5.97;;;5.37;;
15848;SDS011;8024;48.708;9.394;2023-03-12T06:44:07;6.07;;;4.90;;
15848;SDS011;8024;48.708;9.394;2023-03-12T06:46:35;5.87;;;4.60;;
15848;SDS011;8024;48.708;9.394;2023-03-12T06:49:02;5.07;;;4.60;;
15848;SDS011;8024;48.708;9.394;2023-03-12T06:51:29;6.80;;;5.10;;
15848;SDS011;8024;48.708;9.394;2023-03-12T06:53:56;5.57;;;4.73;;
15848;SDS011;8024;48.708;9.394;2023-03-12T06:56:25;6.17;;;5.43;;
15848;SDS011;8024;48.708;9.394;2023-03-12T06:58:53;7.20;;;4.20;;
15848;SDS011;8024;48.708;9.394;2023-03-12T07:01:21;5.53;;;4.80;;
15848;SDS011;8024;48.708;9.394;2023-03-12T07:03:48;4.90;;;4.50;;
15848;SDS011;8024;48.708;9.394;2023-03-12T07:06:16;6.70;;;5.50;;
15848;SDS011;8024;48.708;9.394;2023-03-12T07:08:45;6.10;;;5.43;;
15848;SDS011;8024;48.708;9.394;2023-03-12T07:11:13;6.60;;;5.00;;
15848;SDS011;8024;48.708;9.394;2023-03-12T07:13:41;5.50;;;4.77;;
15848;SDS011;8024;48.708;9.394;2023-03-12T07:16:10;5.67;;;4.23;;
15848;SDS011;8024;48.708;9.394;2023-03-12T07:18:37;5.80;;;5.30;;
15848;SDS011;8024;48.708;9.394;2023-03-12T07:21:05;5.30;;;4.50;;
15848;SDS011;8024;48.708;9.394;2023-03-12T07:23:32;5.47;;;4.43;;
15848;SDS011;8024;48.708;9.394;2023-03-12T07:25:59;4.90;;;4.50;;
15848;SDS011;8024;48.708;9.394;2023-03-12T07:28:28;5.00;;;4.07;;
15848;SDS011;8024;48.708;9.394;2023-03-12T07:30:58;5.90;;;5.33;;
15848;SDS011;8024;48.708;9.394;2023-03-12T07:33:27;6.57;;;5.67;;
15848;SDS011;8024;48.708;9.394;2023-03-12T07:35:54;5.03;;;4.63;;
15848;SDS011;8024;48.708;9.394;2023-03-12T07:38:22;6.07;;;4.70;;
15848;SDS011;8024;48.708;9.394;2023-03-12T07:40:49;5.67;;;5.10;;
15848;SDS011;8024;48.708;9.394;2023-03-12T07:43:17;6.00;;;5.40;;
15848;SDS011;8024;48.708;9.394;2023-03-12T07:45:44;6.03;;;5.43;;
15848;SDS011;8024;48.708;9.394;2023-03-12T07:48:11;6.20;;;5.60;;
15848;SDS011;8024;48.708;9.394;2023-03-12T07:50:40;5.80;;;5.20;;
15848;SDS011;8024;48.708;9.394;2023-03-12T07:53:07;8.40;;;7.50;;
15848;SDS011;8024;48.708;9.394;2023-03-12T07:55:34;9.07;;;8.20;;
15848;SDS011;8024;48.708;9.394;2023-03-12T07:58:02;8.60;;;7.70;;
15848;SDS011;8024;48.708;9.394;2023-03-12T08:00:29;11.97;;;8.23;;
15848;SDS011;8024;48.708;9.394;2023-03-12T08:02:57;12.73;;;9.27;;
15848;SDS011;8024;48.708;9.394;2023-03-12T08:05:24;8.37;;;7.50;;
15848;SDS011;8024;48.708;9.394;2023-03-12T08:07:52;8.43;;;7.40;;
15848;SDS011;8024;48.708;9.394;2023-03-12T08:10:22;6.93;;;6.27;;
15848;SDS011;8024;48.708;9.394;2023-03-12T08:12:49;7.63;;;5.73;;
15848;SDS011;8024;48.708;9.394;2023-03-12T08:15:16;6.47;;;5.27;;
15848;SDS011;8024;48.708;9.394;2023-03-12T08:17:44;6.47;;;5.50;;
15848;SDS011;8024;48.708;9.394;2023-03-12T08:20:11;6.43;;;5.37;;
15848;SDS011;8024;48.708;9.394;2023-03-12T08:22:38;6.40;;;5.80;;
15848;SDS011;8024;48.708;9.394;2023-03-12T08:25:08;8.67;;;5.63;;
15848;SDS011;8024;48.708;9.394;2023-03-12T08:27:36;8.07;;;6.13;;
15848;SDS011;8024;48.708;9.394;2023-03-12T08:30:04;6.30;;;4.93;;
15848;SDS011;8024;48.708;9.394;2023-03-12T08:32:32;7.10;;;6.00;;
15848;SDS011;8024;48.708;9.394;2023-03-12T08:34:59;7.30;;;5.63;;
15848;SDS011;8024;48.708;9.394;2023-03-12T08:37:29;6.30;;;5.73;;
15848;SDS011;8024;48.708;9.394;2023-03-12T08:39:56;6.13;;;5.53;;
15848;SDS011;8024;48.708;9.394;2023-03-12T08:42:25;7.30;;;5.67;;
15848;SDS011;8024;48.708;9.394;2023-03-12T08:44:52;6.83;;;6.13;;
15848;SDS011;8024;48.708;9.394;2023-03-12T08:47:19;6.77;;;5.53;;
15848;SDS011;8024;48.708;9.394;2023-03-12T08:49:46;6.97;;;5.77;;
15848;SDS011;8024;48.708;9.394;2023-03-12T08:52:14;6.50;;;5.80;;
15848;SDS011;8024;48.708;9.394;2023-03-12T08:54:41;5.97;;;5.20;;
15848;SDS011;8024;48.708;9.394;2023-03-12T08:57:08;8.07;;;6.27;;
15848;SDS011;8024;48.708;9.394;2023-03-12T08:59:37;6.83;;;6.03;;
15848;SDS011;8024;48.708;9.394;2023-03-12T09:02:04;6.63;;;5.90;;
15848;SDS011;8024;48.708;9.394;2023-03-12T09:04:32;9.47;;;7.07;;
15848;SDS011;8024;48.708;9.394;2023-03-12T09:06:59;7.43;;;6.67;;
15848;SDS011;8024;48.708;9.394;2023-03-12T09:09:26;8.50;;;5.93;;
15848;SDS011;8024;48.708;9.394;2023-03-12T09:11:53;9.80;;;6.40;;
15848;SDS011;8024;48.708;9.394;2023-03-12T09:14:20;7.07;;;6.30;;
15848;SDS011;8024;48.708;9.394;2023-03-12T09:16:49;7.07;;;6.27;;
15848;SDS011;8024;48.708;9.394;2023-03-12T09:19:16;8.57;;;6.83;;
15848;SDS011;8024;48.708;9.394;2023-03-12T09:21:44;8.07;;;6.43;;
15848;SDS011;8024;48.708;9.394;2023-03-12T09:24:11;6.63;;;6.00;;
15848;SDS011;8024;48.708;9.394;2023-03-12T09:26:38;8.83;;;7.90;;
15848;SDS011;8024;48.708;9.394;2023-03-12T09:29:06;8.03;;;6.97;;
15848;SDS011;8024;48.708;9.394;2023-03-12T09:31:33;8.70;;;6.27;;
15848;SDS011;8024;48.708;9.394;2023-03-12T09:34:02;8.67;;;6.40;;
15848;SDS011;8024;48.708;9.394;2023-03-12T09:36:30;7.80;;;7.00;;
15848;SDS011;8024;48.708;9.394;2023-03-12T09:38:58;7.47;;;6.63;;
15848;SDS011;8024;48.708;9.394;2023-03-12T09:41:27;9.03;;;8.13;;
15848;SDS011;8024;48.708;9.394;2023-03-12T09:43:56;8.77;;;6.93;;
15848;SDS011;8024;48.708;9.394;2023-03-12T09:46:27;8.83;;;7.80;;
15848;SDS011;8024;48.708;9.394;2023-03-12T09:49:00;7.47;;;6.70;;
15848;SDS011;8024;48.708;9.394;2023-03-12T09:51:35;7.67;;;6.87;;
15848;SDS011;8024;48.708;9.394;2023-03-12T09:54:09;7.07;;;6.47;;
15848;SDS011;8024;48.708;9.394;2023-03-12T09:56:44;9.00;;;7.57;;
15848;SDS011;8024;48.708;9.394;2023-03-12T09:59:12;8.57;;;7.33;;
15848;SDS011;8024;48.708;9.394;2023-03-12T10:01:40;9.20;;;7.70;;
15848;SDS011;8024;48.708;9.394;2023-03-12T10:04:22;8.20;;;6.63;;
15848;SDS011;8024;48.708;9.394;2023-03-12T10:07:05;8.90;;;7.27;;
15848;SDS011;8024;48.708;9.394;2023-03-12T10:09:46;7.73;;;6.57;;
15848;SDS011;8024;48.708;9.394;2023-03-12T10:12:28;8.10;;;7.30;;
15848;SDS011;8024;48.708;9.394;2023-03-12T10:15:09;8.70;;;7.10;;
15848;SDS011;8024;48.708;9.394;2023-03-12T10:17:48;7.33;;;6.73;;
15848;SDS011;8024;48.708;9.394;2023-03-12T10:20:31;7.83;;;7.10;;
15848;SDS011;8024;48.708;9.394;2023-03-12T10:23:12;9.33;;;7.80;;
15848;SDS011;8024;48.708;9.394;2023-03-12T10:25:50;10.17;;;7.30;;
15848;SDS011;8024;48.708;9.394;2023-03-12T10:28:22;8.73;;;7.70;;
15848;SDS011;8024;48.708;9.394;2023-03-12T10:30:57;8.80;;;7.17;;
15848;SDS011;8024;48.708;9.394;2023-03-12T10:33:29;8.67;;;6.60;;
15848;SDS011;8024;48.708;9.394;2023-03-12T10:36:10;8.73;;;7.83;;
15848;SDS011;8024;48.708;9.394;2023-03-12T10:38:41;7.90;;;7.23;;
15848;SDS011;8024;48.708;9.394;2023-03-12T10:41:12;8.60;;;7.63;;
15848;SDS011;8024;48.708;9.394;2023-03-12T10:43:40;8.67;;;7.10;;
15848;SDS011;8024;48.708;9.394;2023-03-12T10:46:14;7.87;;;7.17;;
15848;SDS011;8024;48.708;9.394;2023-03-12T10:51:58;9.57;;;7.67;;
15848;SDS011;8024;48.708;9.394;2023-03-12T10:54:28;8.27;;;7.37;;
15848;SDS011;8024;48.708;9.394;2023-03-12T10:56:57;7.83;;;7.23;;
15848;SDS011;8024;48.708;9.394;2023-03-12T10:59:26;8.17;;;7.27;;
15848;SDS011;8024;48.708;9.394;2023-03-12T11:01:55;8.43;;;7.63;;
15848;SDS011;8024;48.708;9.394;2023-03-12T11:04:24;8.97;;;7.43;;
15848;SDS011;8024;48.708;9.394;2023-03-12T11:07:14;8.57;;;7.83;;
15848;SDS011;8024;48.708;9.394;2023-03-12T11:09:45;11.30;;;9.37;;
15848;SDS011;8024;48.708;9.394;2023-03-12T11:12:27;7.67;;;6.77;;
15848;SDS011;8024;48.708;9.394;2023-03-12T11:14:55;8.90;;;7.93;;
15848;SDS011;8024;48.708;9.394;2023-03-12T11:17:24;10.20;;;9.13;;
15848;SDS011;8024;48.708;9.394;2023-03-12T11:19:53;11.97;;;9.63;;
15848;SDS011;8024;48.708;9.394;2023-03-12T11:22:29;9.97;;;8.90;;
15848;SDS011;8024;48.708;9.394;2023-03-12T11:24:58;10.37;;;8.80;;
15848;SDS011;8024;48.708;9.394;2023-03-12T11:27:33;8.37;;;7.57;;
15848;SDS011;8024;48.708;9.394;2023-03-12T11:30:06;8.37;;;7.20;;
15848;SDS011;8024;48.708;9.394;2023-03-12T11:32:37;8.53;;;7.83;;
15848;SDS011;8024;48.708;9.394;2023-03-12T11:35:08;9.03;;;8.13;;
15848;SDS011;8024;48.708;9.394;2023-03-12T11:37:43;8.43;;;7.40;;
15848;SDS011;8024;48.708;9.394;2023-03-12T11:40:31;9.57;;;7.37;;
15848;SDS011;8024;48.708;9.394;2023-03-12T11:46:20;9.07;;;7.63;;
15848;SDS011;8024;48.708;9.394;2023-03-12T11:48:55;7.77;;;7.07;;
15848;SDS011;8024;48.708;9.394;2023-03-12T11:51:32;8.37;;;7.50;;
15848;SDS011;8024;48.708;9.394;2023-03-12T11:54:23;6.10;;;5.47;;
15848;SDS011;8024;48.708;9.394;2023-03-12T11:57:20;7.20;;;6.17;;
15848;SDS011;8024;48.708;9.394;2023-03-12T11:59:58;4.90;;;4.10;;
15848;SDS011;8024;48.708;9.394;2023-03-12T12:02:41;4.60;;;4.03;;
15848;SDS011;8024;48.708;9.394;2023-03-12T12:05:30;3.20;;;3.00;;
15848;SDS011;8024;48.708;9.394;2023-03-12T12:08:07;2.83;;;2.60;;
15848;SDS011;8024;48.708;9.394;2023-03-12T12:10:45;2.07;;;0.50;;
15848;SDS011;8024;48.708;9.394;2023-03-12T12:13:24;1.23;;;0.47;;
15848;SDS011;8024;48.708;9.394;2023-03-12T12:16:00;0.60;;;0.20;;
15848;SDS011;8024;48.708;9.394;2023-03-12T12:18:45;1.50;;;0.50;;
15848;SDS011;8024;48.708;9.394;2023-03-12T12:21:32;1.40;;;0.30;;
15848;SDS011;8024;48.708;9.394;2023-03-12T12:24:08;0.97;;;0.30;;
15848;SDS011;8024;48.708;9.394;2023-03-12T12:26:48;1.97;;;0.30;;
15848;SDS011;8024;48.708;9.394;2023-03-12T12:29:24;1.23;;;0.30;;
15848;SDS011;8024;48.708;9.394;2023-03-12T12:31:57;1.20;;;0.40;;
15848;SDS011;8024;48.708;9.394;2023-03-12T12:37:28;0.80;;;0.60;;
15848;SDS011;8024;48.708;9.394;2023-03-12T12:40:04;2.80;;;0.60;;
15848;SDS011;8024;48.708;9.394;2023-03-12T12:42:43;1.07;;;0.30;;
15848;SDS011;8024;48.708;9.394;2023-03-12T12:45:17;1.80;;;0.80;;
15848;SDS011;8024;48.708;9.394;2023-03-12T12:47:45;3.57;;;1.63;;
15848;SDS011;8024;48.708;9.394;2023-03-12T12:50:16;1.63;;;0.47;;
15848;SDS011;8024;48.708;9.394;2023-03-12T12:52:48;1.30;;;0.40;;
15848;SDS011;8024;48.708;9.394;2023-03-12T12:55:18;1.40;;;0.70;;
15848;SDS011;8024;48.708;9.394;2023-03-12T12:57:53;1.80;;;0.50;;
15848;SDS011;8024;48.708;9.394;2023-03-12T13:00:31;2.10;;;0.57;;
15848;SDS011;8024;48.708;9.394;2023-03-12T13:03:03;2.60;;;0.40;;
15848;SDS011;8024;48.708;9.394;2023-03-12T13:05:39;2.90;;;0.70;;
15848;SDS011;8024;48.708;9.394;2023-03-12T13:08:09;1.20;;;0.43;;
15848;SDS011;8024;48.708;9.394;2023-03-12T13:11:04;2.87;;;0.60;;
15848;SDS011;8024;48.708;9.394;2023-03-12T13:13:50;0.83;;;0.50;;
15848;SDS011;8024;48.708;9.394;2023-03-12T13:16:37;2.70;;;1.00;;
15848;SDS011;8024;48.708;9.394;2023-03-12T13:19:07;1.07;;;0.60;;
15848;SDS011;8024;48.708;9.394;2023-03-12T13:21:53;2.33;;;0.80;;
15848;SDS011;8024;48.708;9.394;2023-03-12T13:24:28;1.87;;;0.60;;
15848;SDS011;8024;48.708;9.394;2023-03-12T13:26:59;2.63;;;0.70;;
15848;SDS011;8024;48.708;9.394;2023-03-12T13:29:36;2.50;;;0.70;;
15848;SDS011;8024;48.708;9.394;2023-03-12T13:32:07;3.00;;;1.10;;
15848;SDS011;8024;48.708;9.394;2023-03-12T13:34:56;2.43;;;0.70;;
15848;SDS011;8024;48.708;9.394;2023-03-12T13:43:30;1.60;;;1.00;;
15848;SDS011;8024;48.708;9.394;2023-03-12T13:46:21;2.20;;;0.60;;
15848;SDS011;8024;48.708;9.394;2023-03-12T13:49:15;3.07;;;0.77;;
15848;SDS011;8024;48.708;9.394;2023-03-12T13:51:45;1.63;;;0.50;;
15848;SDS011;8024;48.708;9.394;2023-03-12T13:54:34;2.40;;;0.60;;
15848;SDS011;8024;48.708;9.394;2023-03-12T13:57:09;0.50;;;0.30;;
15848;SDS011;8024;48.708;9.394;2023-03-12T13:59:41;2.83;;;0.47;;
15848;SDS011;8024;48.708;9.394;2023-03-12T14:02:14;3.13;;;0.70;;
15848;SDS011;8024;48.708;9.394;2023-03-12T14:04:47;1.63;;;0.60;;
15848;SDS011;8024;48.708;9.394;2023-03-12T14:07:22;2.43;;;0.63;;
15848;SDS011;8024;48.708;9.394;2023-03-12T14:10:00;1.20;;;0.60;;
15848;SDS011;8024;48.708;9.394;2023-03-12T14:12:36;1.80;;;0.40;;
15848;SDS011;8024;48.708;9.394;2023-03-12T14:15:15;1.93;;;0.50;;
15848;SDS011;8024;48.708;9.394;2023-03-12T14:17:54;0.53;;;0.40;;
15848;SDS011;8024;48.708;9.394;2023-03-12T14:20:23;1.70;;;0.47;;
15848;SDS011;8024;48.708;9.394;2023-03-12T14:22:51;0.67;;;0.30;;
15848;SDS011;8024;48.708;9.394;2023-03-12T14:25:26;1.97;;;0.67;;
15848;SDS011;8024;48.708;9.394;2023-03-12T14:27:58;1.03;;;0.40;;
15848;SDS011;8024;48.708;9.394;2023-03-12T14:30:28;1.10;;;0.40;;
15848;SDS011;8024;48.708;9.394;2023-03-12T14:33:04;1.33;;;0.40;;
15848;SDS011;8024;48.708;9.394;2023-03-12T14:35:34;0.97;;;0.37;;
15848;SDS011;8024;48.708;9.394;2023-03-12T14:38:09;1.27;;;0.50;;
15848;SDS011;8024;48.708;9.394;2023-03-12T14:40:41;3.10;;;0.63;;
15848;SDS011;8024;48.708;9.394;2023-03-12T14:43:22;1.17;;;0.40;;
15848;SDS011;8024;48.708;9.394;2023-03-12T14:45:53;1.63;;;1.53;;
15848;SDS011;8024;48.708;9.394;2023-03-12T14:48:22;1.67;;;0.40;;
15848;SDS011;8024;48.708;9.394;2023-03-12T14:50:53;1.17;;;0.43;;
15848;SDS011;8024;48.708;9.394;2023-03-12T14:53:23;3.13;;;0.70;;
15848;SDS011;8024;48.708;9.394;2023-03-12T14:55:58;1.57;;;0.57;;
15848;SDS011;8024;48.708;9.394;2023-03-12T14:58:26;2.77;;;0.50;;
15848;SDS011;8024;48.708;9.394;2023-03-12T15:00:54;1.30;;;0.60;;
15848;SDS011;8024;48.708;9.394;2023-03-12T15:03:24;1.17;;;0.60;;
15848;SDS011;8024;48.708;9.394;2023-03-12T15:05:53;3.87;;;0.73;;
15848;SDS011;8024;48.708;9.394;2023-03-12T15:08:21;1.17;;;0.70;;
15848;SDS011;8024;48.708;9.394;2023-03-12T15:10:49;3.67;;;0.67;;
15848;SDS011;8024;48.708;9.394;2023-03-12T15:13:19;5.53;;;0.70;;
15848;SDS011;8024;48.708;9.394;2023-03-12T15:15:48;1.10;;;0.50;;
15848;SDS011;8024;48.708;9.394;2023-03-12T15:18:19;1.63;;;0.70;;
15848;SDS011;8024;48.708;9.394;2023-03-12T15:20:50;2.30;;;0.60;;
15848;SDS011;8024;48.708;9.394;2023-03-12T15:23:18;1.70;;;0.63;;
15848;SDS011;8024;48.708;9.394;2023-03-12T15:26:00;3.20;;;0.60;;
15848;SDS011;8024;48.708;9.394;2023-03-12T15:28:35;1.67;;;0.80;;
15848;SDS011;8024;48.708;9.394;2023-03-12T15:31:04;1.57;;;0.60;;
15848;SDS011;8024;48.708;9.394;2023-03-12T15:33:33;1.90;;;1.00;;
15848;SDS011;8024;48.708;9.394;2023-03-12T15:36:03;2.73;;;0.70;;
15848;SDS011;8024;48.708;9.394;2023-03-12T15:38:43;2.60;;;0.70;;